ブラチスラヴァ の空港の天気 - METARとTAF

ブラチスラヴァ空港 ( LZIB / BTS ) - スロバキア ブラチスラヴァ
飛行場実況気象(Metar)
観測時間02/05 21:30 CET (02/05 20:30 UTC)
風向・風速北北東 4m/s
視程10km以上
天気現象
なし
気温-4℃
湿度74%
気圧1036hPa
METARLZIB 052030Z 03008KT CAVOK M04/M08 Q1036 NOSIG
過去の天気等 Google飛行場航空写真 Wunderground天気予報

過去48時間のMETAR

飛行場予報(TAF)
発表時間: 2/05 18:15 CET (2/05 17:15 UTC)
予報対象時間: 5日19時 CET ~ 6日19時 CET
風向・風速北北西 4m/s
視程10km以上
なし
TAF LZIB 051715Z 0518/0618 34008KT CAVOK